createdAt,value
2018-08-25T00:00:19.509Z,1007.60
2018-08-25T00:01:19.577Z,1007.59
2018-08-25T00:02:19.649Z,1007.61
2018-08-25T00:03:19.709Z,1007.62
2018-08-25T00:04:19.769Z,1007.59
2018-08-25T00:05:19.832Z,1007.56
2018-08-25T00:06:19.893Z,1007.57
2018-08-25T00:07:19.969Z,1007.54
2018-08-25T00:08:20.029Z,1007.54
2018-08-25T00:09:20.089Z,1007.53
2018-08-25T00:10:20.153Z,1007.43
2018-08-25T00:11:20.221Z,1007.45
2018-08-25T00:12:20.468Z,1007.45
2018-08-25T00:13:20.348Z,1007.45
2018-08-25T00:14:20.409Z,1007.44
2018-08-25T00:15:20.475Z,1007.45
2018-08-25T00:16:20.542Z,1007.43
2018-08-25T00:17:20.605Z,1007.40
2018-08-25T00:18:20.670Z,1007.38
2018-08-25T00:19:20.729Z,1007.36
2018-08-25T00:20:20.794Z,1007.36
2018-08-25T00:21:20.858Z,1007.37
2018-08-25T00:22:20.927Z,1007.33
2018-08-25T00:23:20.997Z,1007.32
2018-08-25T00:24:21.055Z,1007.29
2018-08-25T00:25:21.119Z,1007.27
2018-08-25T00:26:21.178Z,1007.25
2018-08-25T00:27:21.241Z,1007.23
2018-08-25T00:28:21.433Z,1007.23
2018-08-25T00:29:21.373Z,1007.17
2018-08-25T00:30:21.435Z,1007.18
2018-08-25T00:31:21.503Z,1007.21
2018-08-25T00:32:21.562Z,1007.19
2018-08-25T00:33:21.634Z,1007.15
2018-08-25T00:34:21.698Z,1007.16
2018-08-25T00:35:21.754Z,1007.16
2018-08-25T00:36:21.822Z,1007.13
2018-08-25T00:37:21.882Z,1007.12
2018-08-25T00:38:21.956Z,1007.14
2018-08-25T00:39:22.019Z,1007.12
2018-08-25T00:40:22.078Z,1007.08
2018-08-25T00:41:22.369Z,1007.05
2018-08-25T00:42:22.203Z,1007.03
2018-08-25T00:43:22.277Z,1006.98
2018-08-25T00:44:22.351Z,1007.03
2018-08-25T00:45:22.395Z,1006.98
2018-08-25T00:46:22.459Z,1006.99
2018-08-25T00:47:22.523Z,1007.00
2018-08-25T00:48:22.587Z,1007.00
2018-08-25T00:49:22.659Z,1006.96
2018-08-25T00:50:22.723Z,1006.95
2018-08-25T00:51:22.779Z,1006.93
2018-08-25T00:52:22.846Z,1006.94
2018-08-25T00:53:22.907Z,1006.92
2018-08-25T00:54:22.983Z,1006.91
2018-08-25T00:55:23.043Z,1006.93
2018-08-25T00:56:23.099Z,1006.91
2018-08-25T00:57:23.176Z,1006.88
2018-08-25T00:58:23.236Z,1006.89
2018-08-25T00:59:23.608Z,1006.83
2018-08-25T01:00:23.355Z,1006.90
2018-08-25T01:01:23.420Z,1006.83
2018-08-25T01:02:23.483Z,1006.82
2018-08-25T01:03:23.550Z,1006.88
2018-08-25T01:04:23.620Z,1006.82
2018-08-25T01:05:23.684Z,1006.83
2018-08-25T01:06:23.740Z,1006.81
2018-08-25T01:07:23.804Z,1006.78
2018-08-25T01:08:23.868Z,1006.82
2018-08-25T01:09:23.940Z,1006.76
2018-08-25T01:10:24.004Z,1006.81
2018-08-25T01:11:24.060Z,1006.78
2018-08-25T01:12:24.124Z,1006.76
2018-08-25T01:13:24.188Z,1006.72
2018-08-25T01:14:24.253Z,1006.67
2018-08-25T01:15:24.654Z,1006.71
2018-08-25T01:16:24.380Z,1006.69
2018-08-25T01:17:24.444Z,1006.71
2018-08-25T01:18:24.508Z,1006.73
2018-08-25T01:19:24.572Z,1006.68
2018-08-25T01:20:24.636Z,1006.69
2018-08-25T01:21:24.864Z,1006.69
2018-08-25T01:22:24.770Z,1006.66
2018-08-25T01:23:24.829Z,1006.65
2018-08-25T01:24:24.892Z,1006.64
2018-08-25T01:25:24.960Z,1006.64
2018-08-25T01:26:25.028Z,1006.64
2018-08-25T01:27:25.092Z,1006.66
2018-08-25T01:28:25.149Z,1006.64
2018-08-25T01:29:25.212Z,1006.65
2018-08-25T01:30:25.277Z,1006.59
2018-08-25T01:31:25.348Z,1006.62
2018-08-25T01:32:25.412Z,1006.54
2018-08-25T01:33:25.469Z,1006.54
2018-08-25T01:34:25.532Z,1006.55
2018-08-25T01:35:25.597Z,1006.52
2018-08-25T01:36:25.672Z,1006.48
2018-08-25T01:37:25.733Z,1006.45
2018-08-25T01:38:25.789Z,1006.45
2018-08-25T01:39:25.852Z,1006.43
2018-08-25T01:40:25.916Z,1006.44
2018-08-25T01:41:25.992Z,1006.40
2018-08-25T01:42:26.052Z,1006.37
2018-08-25T01:43:26.117Z,1006.34
2018-08-25T01:44:26.172Z,1006.31
2018-08-25T01:45:26.237Z,1006.29
2018-08-25T01:46:26.636Z,1006.23
2018-08-25T01:47:26.361Z,1006.24
2018-08-25T01:48:26.428Z,1006.27
2018-08-25T01:49:26.492Z,1006.21
2018-08-25T01:50:26.556Z,1006.20
2018-08-25T01:51:26.621Z,1006.20
2018-08-25T01:52:26.705Z,1006.24
2018-08-25T01:53:26.745Z,1006.22
2018-08-25T01:54:26.813Z,1006.18
2018-08-25T01:55:26.877Z,1006.18
2018-08-25T01:56:26.943Z,1006.14
2018-08-25T01:57:27.013Z,1006.08
2018-08-25T01:58:27.077Z,1006.03
2018-08-25T01:59:27.135Z,1006.06
2018-08-25T02:00:27.196Z,1005.98
2018-08-25T02:01:27.261Z,1005.99
2018-08-25T02:02:27.421Z,1005.98
2018-08-25T02:03:27.390Z,1005.99
2018-08-25T02:04:27.454Z,1005.90
2018-08-25T02:05:27.517Z,1005.93
2018-08-25T02:06:27.581Z,1005.94
2018-08-25T02:07:27.653Z,1005.90
2018-08-25T02:08:27.718Z,1005.89
2018-08-25T02:09:27.773Z,1005.90
2018-08-25T02:10:27.839Z,1005.86
2018-08-25T02:11:27.901Z,1005.84
2018-08-25T02:12:27.973Z,1005.84
2018-08-25T02:13:28.038Z,1005.83
2018-08-25T02:14:28.097Z,1005.85
2018-08-25T02:15:28.157Z,1005.79
2018-08-25T02:16:28.222Z,1005.78
2018-08-25T02:17:28.518Z,1005.75
2018-08-25T02:18:28.350Z,1005.75
2018-08-25T02:19:28.417Z,1005.75
2018-08-25T02:20:28.482Z,1005.72
2018-08-25T02:21:28.546Z,1005.70
2018-08-25T02:22:28.610Z,1005.68
2018-08-25T02:23:28.674Z,1005.66
2018-08-25T02:24:28.734Z,1005.65
2018-08-25T02:25:28.798Z,1005.65
2018-08-25T02:26:28.862Z,1005.65
2018-08-25T02:27:28.930Z,1005.63
2018-08-25T02:28:28.995Z,1005.67
2018-08-25T02:29:29.058Z,1005.65
2018-08-25T02:30:29.122Z,1005.68
2018-08-25T02:31:29.182Z,1005.67
2018-08-25T02:32:29.246Z,1005.65
2018-08-25T02:33:29.442Z,1005.65
2018-08-25T02:34:29.371Z,1005.63
2018-08-25T02:35:29.443Z,1005.64
2018-08-25T02:36:29.502Z,1005.66
2018-08-25T02:37:29.567Z,1005.64
2018-08-25T02:38:29.640Z,1005.62
2018-08-25T02:39:29.698Z,1005.67
2018-08-25T02:40:29.759Z,1005.65
2018-08-25T02:41:29.822Z,1005.64
2018-08-25T02:42:29.882Z,1005.62
2018-08-25T02:43:29.959Z,1005.63
2018-08-25T02:44:30.019Z,1005.57
2018-08-25T02:45:30.079Z,1005.59
2018-08-25T02:46:30.139Z,1005.59
2018-08-25T02:47:30.203Z,1005.60
2018-08-25T02:48:30.267Z,1005.61
2018-08-25T02:49:30.451Z,1005.57
2018-08-25T02:50:30.398Z,1005.63
2018-08-25T02:51:30.459Z,1005.58
2018-08-25T02:52:30.524Z,1005.51
2018-08-25T02:53:30.590Z,1005.55
2018-08-25T02:54:30.659Z,1005.54
2018-08-25T02:55:30.723Z,1005.57
2018-08-25T02:56:30.780Z,1005.49
2018-08-25T02:57:30.868Z,1005.54
2018-08-25T02:58:30.912Z,1005.51
2018-08-25T02:59:30.984Z,1005.51
2018-08-25T03:00:31.048Z,1005.50
2018-08-25T03:01:31.100Z,1005.55
2018-08-25T03:02:31.164Z,1005.55
2018-08-25T03:03:31.227Z,1005.53
2018-08-25T03:04:31.292Z,1005.60
2018-08-25T03:05:31.525Z,1005.61
2018-08-25T03:06:31.425Z,1005.66
2018-08-25T03:07:31.484Z,1005.72
2018-08-25T03:08:31.548Z,1005.69
2018-08-25T03:09:31.612Z,1005.80
2018-08-25T03:10:31.684Z,1005.79
2018-08-25T03:11:31.752Z,1005.71
2018-08-25T03:12:31.804Z,1005.69
2018-08-25T03:13:31.868Z,1005.83
2018-08-25T03:14:31.932Z,1005.72
2018-08-25T03:15:32.001Z,1005.73
2018-08-25T03:16:32.064Z,1005.75
2018-08-25T03:17:32.124Z,1005.71
2018-08-25T03:18:32.188Z,1005.70
2018-08-25T03:19:32.252Z,1005.67
2018-08-25T03:20:32.317Z,1005.65
2018-08-25T03:21:32.653Z,1005.63
2018-08-25T03:22:32.441Z,1005.63
2018-08-25T03:23:32.504Z,1005.60
2018-08-25T03:24:32.573Z,1005.56
2018-08-25T03:25:32.632Z,1005.56
2018-08-25T03:26:32.700Z,1005.59
2018-08-25T03:27:32.765Z,1005.57
2018-08-25T03:28:32.824Z,1005.57
2018-08-25T03:29:32.890Z,1005.53
2018-08-25T03:30:32.951Z,1005.49
2018-08-25T03:31:33.021Z,1005.52
2018-08-25T03:32:33.090Z,1005.54
2018-08-25T03:33:33.141Z,1005.51
2018-08-25T03:34:33.206Z,1005.48
2018-08-25T03:35:33.273Z,1005.46
2018-08-25T03:36:33.454Z,1005.43
2018-08-25T03:37:33.401Z,1005.37
2018-08-25T03:38:33.465Z,1005.34
2018-08-25T03:39:33.525Z,1005.36
2018-08-25T03:40:33.589Z,1005.36
2018-08-25T03:41:33.659Z,1005.35
2018-08-25T03:42:33.726Z,1005.32
2018-08-25T03:43:33.777Z,1005.34
2018-08-25T03:44:33.841Z,1005.30
2018-08-25T03:45:33.918Z,1005.27
2018-08-25T03:46:33.980Z,1005.30
2018-08-25T03:47:34.037Z,1005.29
2018-08-25T03:48:34.097Z,1005.26
2018-08-25T03:49:34.161Z,1005.19
2018-08-25T03:50:34.222Z,1005.25
2018-08-25T03:51:34.285Z,1005.25
2018-08-25T03:52:34.461Z,1005.31
2018-08-25T03:53:34.414Z,1005.29
2018-08-25T03:54:34.478Z,1005.32
2018-08-25T03:55:34.683Z,1005.34
2018-08-25T03:56:34.606Z,1005.35
2018-08-25T03:57:34.675Z,1005.37
2018-08-25T03:58:34.740Z,1005.36
2018-08-25T03:59:34.796Z,1005.34
2018-08-25T04:00:34.858Z,1005.37
2018-08-25T04:01:35.009Z,1005.33
2018-08-25T04:02:34.990Z,1005.32
2018-08-25T04:03:35.058Z,1005.29
2018-08-25T04:04:35.114Z,1005.25
2018-08-25T04:05:35.179Z,1005.21
2018-08-25T04:06:35.246Z,1005.27
2018-08-25T04:07:35.327Z,1005.23
2018-08-25T04:08:35.366Z,1005.29
2018-08-25T04:09:35.430Z,1005.31
2018-08-25T04:10:35.494Z,1005.28
2018-08-25T04:11:35.558Z,1005.34
2018-08-25T04:12:35.626Z,1005.35
2018-08-25T04:13:35.690Z,1005.38
2018-08-25T04:14:35.746Z,1005.37
2018-08-25T04:15:35.811Z,1005.35
2018-08-25T04:16:35.878Z,1005.39
2018-08-25T04:17:35.946Z,1005.34
2018-08-25T04:18:36.007Z,1005.37
2018-08-25T04:19:36.069Z,1005.31
2018-08-25T04:20:36.131Z,1005.38
2018-08-25T04:21:36.192Z,1005.34
2018-08-25T04:22:36.495Z,1005.46
2018-08-25T04:23:36.319Z,1005.37
2018-08-25T04:24:36.383Z,1005.41
2018-08-25T04:25:36.447Z,1005.38
2018-08-25T04:26:36.511Z,1005.36
2018-08-25T04:27:36.579Z,1005.35
2018-08-25T04:28:36.647Z,1005.40
2018-08-25T04:29:36.701Z,1005.36
2018-08-25T04:30:36.759Z,1005.33
2018-08-25T04:31:36.830Z,1005.34
2018-08-25T04:32:36.895Z,1005.38
2018-08-25T04:33:36.975Z,1005.45
2018-08-25T04:34:37.016Z,1005.43
2018-08-25T04:35:37.080Z,1005.50
2018-08-25T04:36:37.145Z,1005.47
2018-08-25T04:37:37.217Z,1005.44
2018-08-25T04:38:37.508Z,1005.40
2018-08-25T04:39:37.335Z,1005.39
2018-08-25T04:40:37.403Z,1005.41
2018-08-25T04:41:37.464Z,1005.41
2018-08-25T04:42:37.524Z,1005.41
2018-08-25T04:43:37.603Z,1005.45
2018-08-25T04:44:37.659Z,1005.47
2018-08-25T04:45:37.716Z,1005.47
2018-08-25T04:46:37.780Z,1005.46
2018-08-25T04:47:37.843Z,1005.47
2018-08-25T04:48:37.911Z,1005.48
2018-08-25T04:49:37.975Z,1005.47
2018-08-25T04:50:38.031Z,1005.45
2018-08-25T04:51:38.096Z,1005.50
2018-08-25T04:52:38.167Z,1005.54
2018-08-25T04:53:38.460Z,1005.52
2018-08-25T04:54:38.292Z,1005.52
2018-08-25T04:55:38.348Z,1005.53
2018-08-25T04:56:38.414Z,1005.53
2018-08-25T04:57:38.476Z,1005.58
2018-08-25T04:58:38.544Z,1005.58
2018-08-25T04:59:38.608Z,1005.57
2018-08-25T05:00:38.668Z,1005.58
2018-08-25T05:01:38.729Z,1005.57
2018-08-25T05:02:38.848Z,1005.59
2018-08-25T05:03:38.864Z,1005.61
2018-08-25T05:04:38.924Z,1005.62
2018-08-25T05:05:38.984Z,1005.63
2018-08-25T05:06:39.044Z,1005.68
2018-08-25T05:07:39.196Z,1005.68
2018-08-25T05:08:39.327Z,1005.67
2018-08-25T05:09:39.237Z,1005.68
2018-08-25T05:10:39.300Z,1005.69
2018-08-25T05:11:39.365Z,1005.73
2018-08-25T05:12:39.425Z,1005.76
2018-08-25T05:13:39.501Z,1005.84
2018-08-25T05:14:39.562Z,1005.85
2018-08-25T05:15:39.617Z,1005.76
2018-08-25T05:16:39.680Z,1005.86
2018-08-25T05:17:39.745Z,1005.81
2018-08-25T05:18:39.812Z,1005.81
2018-08-25T05:19:39.886Z,1005.83
2018-08-25T05:20:39.933Z,1005.83
2018-08-25T05:21:39.997Z,1005.84
2018-08-25T05:22:40.058Z,1005.82
2018-08-25T05:23:40.133Z,1005.85
2018-08-25T05:24:40.185Z,1005.88
2018-08-25T05:25:40.249Z,1005.92
2018-08-25T05:26:40.313Z,1005.93
2018-08-25T05:27:40.377Z,1005.94
2018-08-25T05:28:40.445Z,1005.94
2018-08-25T05:29:40.505Z,1005.91
2018-08-25T05:30:40.565Z,1005.89
2018-08-25T05:31:40.633Z,1005.90
2018-08-25T05:32:40.693Z,1005.92
2018-08-25T05:33:40.761Z,1005.95
2018-08-25T05:34:40.825Z,1005.97
2018-08-25T05:35:40.882Z,1006.02
2018-08-25T05:36:40.945Z,1006.05
2018-08-25T05:37:41.009Z,1006.05
2018-08-25T05:39:02.104Z,1006.13
2018-08-25T05:39:41.133Z,1006.14
2018-08-25T05:40:41.200Z,1006.17
2018-08-25T05:41:41.262Z,1006.14
2018-08-25T05:42:41.326Z,1006.17
2018-08-25T05:43:41.398Z,1006.13
2018-08-25T05:44:41.458Z,1006.13
2018-08-25T05:45:41.530Z,1006.10
2018-08-25T05:46:41.578Z,1006.11
2018-08-25T05:47:41.641Z,1006.10
2018-08-25T05:48:41.715Z,1006.11
2018-08-25T05:49:41.782Z,1006.15
2018-08-25T05:50:41.834Z,1006.17
2018-08-25T05:51:41.903Z,1006.20
2018-08-25T05:52:41.962Z,1006.22
2018-08-25T05:53:42.030Z,1006.20
2018-08-25T05:54:42.094Z,1006.21
2018-08-25T05:55:42.151Z,1006.22
2018-08-25T05:56:42.214Z,1006.23
2018-08-25T05:57:42.392Z,1006.16
2018-08-25T05:58:42.347Z,1006.11
2018-08-25T05:59:42.411Z,1006.21
2018-08-25T06:00:42.467Z,1006.17
2018-08-25T06:01:42.531Z,1006.27
2018-08-25T06:02:42.595Z,1006.27
2018-08-25T06:03:42.663Z,1006.30
2018-08-25T06:04:42.731Z,1006.31
2018-08-25T06:05:42.787Z,1006.27
2018-08-25T06:06:42.981Z,1006.35
2018-08-25T06:07:42.915Z,1006.35
2018-08-25T06:08:42.983Z,1006.43
2018-08-25T06:09:43.047Z,1006.46
2018-08-25T06:10:43.105Z,1006.40
2018-08-25T06:11:43.167Z,1006.50
2018-08-25T06:12:43.231Z,1006.49
2018-08-25T06:13:43.384Z,1006.48
2018-08-25T06:14:43.356Z,1006.45
2018-08-25T06:15:43.419Z,1006.41
2018-08-25T06:16:43.483Z,1006.31
2018-08-25T06:17:43.563Z,1006.43
2018-08-25T06:18:43.619Z,1006.44
2018-08-25T06:19:43.686Z,1006.51
2018-08-25T06:20:43.743Z,1006.54
2018-08-25T06:21:43.799Z,1006.57
2018-08-25T06:22:43.864Z,1006.50
2018-08-25T06:23:43.939Z,1006.57
2018-08-25T06:24:43.999Z,1006.67
2018-08-25T06:25:44.056Z,1006.56
2018-08-25T06:26:44.120Z,1006.59
2018-08-25T06:27:44.184Z,1006.59
2018-08-25T06:28:44.491Z,1006.67
2018-08-25T06:29:44.384Z,1006.72
2018-08-25T06:30:44.564Z,1006.74
2018-08-25T06:31:44.436Z,1006.68
2018-08-25T06:32:44.496Z,1006.57
2018-08-25T06:33:44.581Z,1006.60
2018-08-25T06:34:44.635Z,1006.60
2018-08-25T06:35:44.692Z,1006.54
2018-08-25T06:36:44.816Z,1006.57
2018-08-25T06:37:44.820Z,1006.54
2018-08-25T06:38:44.892Z,1006.55
2018-08-25T06:39:44.964Z,1006.55
2018-08-25T06:40:45.012Z,1006.51
2018-08-25T06:41:45.076Z,1006.52
2018-08-25T06:42:45.140Z,1006.63
2018-08-25T06:43:45.488Z,1006.76
2018-08-25T06:44:45.268Z,1006.81
2018-08-25T06:45:45.333Z,1006.68
2018-08-25T06:46:45.392Z,1006.70
2018-08-25T06:47:45.459Z,1006.69
2018-08-25T06:48:45.529Z,1006.67
2018-08-25T06:49:45.592Z,1006.66
2018-08-25T06:50:45.648Z,1006.81
2018-08-25T06:51:45.717Z,1006.68
2018-08-25T06:52:45.776Z,1006.75
2018-08-25T06:53:45.852Z,1006.71
2018-08-25T06:54:45.912Z,1006.73
2018-08-25T06:55:45.973Z,1006.84
2018-08-25T06:56:46.033Z,1006.77
2018-08-25T06:57:46.097Z,1006.79
2018-08-25T06:58:46.176Z,1006.81
2018-08-25T06:59:46.229Z,1006.72
2018-08-25T07:00:46.292Z,1006.68
2018-08-25T07:01:46.353Z,1006.68
2018-08-25T07:02:46.418Z,1006.71
2018-08-25T07:03:46.488Z,1006.66
2018-08-25T07:04:46.548Z,1006.67
2018-08-25T07:05:46.608Z,1006.66
2018-08-25T07:06:46.669Z,1006.90
2018-08-25T07:07:46.733Z,1008.28
2018-08-25T07:08:46.805Z,1009.80
2018-08-25T07:09:46.869Z,1010.08
2018-08-25T07:10:46.929Z,1009.94
2018-08-25T07:11:46.997Z,1010.02
2018-08-25T07:12:47.062Z,1006.98
2018-08-25T07:13:47.397Z,1007.97
2018-08-25T07:14:47.189Z,1009.66
2018-08-25T07:15:47.253Z,1007.00
2018-08-25T07:16:47.322Z,1009.81
2018-08-25T07:17:47.389Z,1007.11
2018-08-25T07:18:47.471Z,1008.95
2018-08-25T07:19:47.530Z,1009.79
2018-08-25T07:20:47.585Z,1009.64
2018-08-25T07:21:47.653Z,1009.94
2018-08-25T07:22:47.721Z,1009.69
2018-08-25T07:23:47.794Z,1008.30
2018-08-25T07:24:47.866Z,1007.61
2018-08-25T07:25:48.006Z,1007.16
2018-08-25T07:26:48.060Z,1007.09
2018-08-25T07:27:48.058Z,1007.12
2018-08-25T07:28:48.160Z,1007.07
2018-08-25T07:29:48.193Z,1007.06
2018-08-25T07:30:48.262Z,1007.23
2018-08-25T07:31:48.330Z,1007.19
2018-08-25T07:32:48.393Z,1007.09
2018-08-25T07:33:48.474Z,1007.18
2018-08-25T07:34:48.534Z,1007.20
2018-08-25T07:35:48.594Z,1007.20
2018-08-25T07:36:48.874Z,1007.28
2018-08-25T07:37:48.738Z,1007.83
2018-08-25T07:38:49.506Z,1007.15
2018-08-25T07:39:48.878Z,1007.16
2018-08-25T07:40:48.922Z,1007.14
2018-08-25T07:41:48.990Z,1007.06
2018-08-25T07:42:49.065Z,1006.97
2018-08-25T07:43:49.234Z,1007.05
2018-08-25T07:44:49.194Z,1007.13
2018-08-25T07:45:49.261Z,1007.34
2018-08-25T07:46:49.322Z,1008.70
2018-08-25T07:47:49.386Z,1007.49
2018-08-25T07:48:49.463Z,1007.89
2018-08-25T07:49:49.527Z,1008.69
2018-08-25T07:50:49.587Z,1007.35
2018-08-25T07:51:49.650Z,1007.53
2018-08-25T07:52:49.727Z,1008.69
2018-08-25T07:53:49.873Z,1007.43
2018-08-25T07:54:49.855Z,1007.57
2018-08-25T07:55:49.915Z,1008.74
2018-08-25T07:56:49.987Z,1007.26
2018-08-25T07:57:50.047Z,1007.21
2018-08-25T07:58:50.141Z,1007.44
2018-08-25T07:59:50.181Z,1007.23
2018-08-25T08:00:50.247Z,1007.24
2018-08-25T08:01:50.311Z,1007.26
2018-08-25T08:02:50.379Z,1007.18
2018-08-25T08:03:50.454Z,1007.15
2018-08-25T08:04:50.587Z,1008.70
2018-08-25T08:05:50.577Z,1007.85
2018-08-25T08:06:50.639Z,1007.45
2018-08-25T08:07:50.707Z,1007.40
2018-08-25T08:08:50.781Z,1008.47
2018-08-25T08:09:50.850Z,1008.49
2018-08-25T08:10:50.913Z,1008.48
2018-08-25T08:11:50.993Z,1008.57
2018-08-25T08:12:51.042Z,1008.65
2018-08-25T08:13:51.271Z,1008.56
2018-08-25T08:14:51.176Z,1008.48
2018-08-25T08:15:51.244Z,1007.57
2018-08-25T08:16:51.311Z,1007.45
2018-08-25T08:17:51.388Z,1008.55
2018-08-25T08:18:51.455Z,1007.58
2018-08-25T08:19:51.524Z,1007.47
2018-08-25T08:20:51.583Z,1007.56
2018-08-25T08:21:51.652Z,1007.56
2018-08-25T08:22:51.719Z,1007.56
2018-08-25T08:23:51.795Z,1007.58
2018-08-25T08:24:51.868Z,1007.50
2018-08-25T08:25:51.924Z,1007.54
2018-08-25T08:26:51.987Z,1007.70
2018-08-25T08:27:52.060Z,1007.51
2018-08-25T08:28:52.249Z,1007.53
2018-08-25T08:29:52.191Z,1007.65
2018-08-25T08:30:52.264Z,1008.65
2018-08-25T08:31:52.328Z,1008.31
2018-08-25T08:32:52.398Z,1007.74
2018-08-25T08:33:52.469Z,1008.23
2018-08-25T08:34:52.536Z,1007.77
2018-08-25T08:35:52.596Z,1007.72
2018-08-25T08:36:52.672Z,1007.67
2018-08-25T08:37:52.735Z,1007.69
2018-08-25T08:38:52.804Z,1007.78
2018-08-25T08:39:52.872Z,1007.77
2018-08-25T08:40:52.932Z,1007.72
2018-08-25T08:41:53.004Z,1007.76
2018-08-25T08:42:53.068Z,1008.61
2018-08-25T08:43:53.312Z,1008.55
2018-08-25T08:44:53.204Z,1008.32
2018-08-25T08:45:53.272Z,1007.79
2018-08-25T08:46:53.340Z,1008.69
2018-08-25T08:47:53.404Z,1008.72
2018-08-25T08:48:53.485Z,1008.65
2018-08-25T08:49:53.604Z,1008.68
2018-08-25T08:50:53.613Z,1008.67
2018-08-25T08:51:53.680Z,1008.65
2018-08-25T08:52:53.748Z,1008.31
2018-08-25T08:53:53.825Z,1008.60
2018-08-25T08:54:53.893Z,1008.68
2018-08-25T08:55:53.957Z,1008.68
2018-08-25T08:56:54.052Z,1008.67
2018-08-25T08:57:54.093Z,1008.50
2018-08-25T08:58:54.193Z,1008.04
2018-08-25T08:59:54.236Z,1008.40
2018-08-25T09:00:54.309Z,1008.25
2018-08-25T09:01:54.373Z,1008.40
2018-08-25T09:02:54.441Z,1008.02
2018-08-25T09:03:54.521Z,1007.93
2018-08-25T09:04:54.589Z,1007.84
2018-08-25T09:05:54.653Z,1008.41
2018-08-25T09:06:54.721Z,1008.44
2018-08-25T09:07:54.789Z,1008.40
2018-08-25T09:08:54.872Z,1008.02
2018-08-25T09:09:54.937Z,1008.30
2018-08-25T09:10:54.997Z,1008.13
2018-08-25T09:11:55.105Z,1008.30
2018-08-25T09:12:55.138Z,1007.85
2018-08-25T09:13:55.210Z,1008.35
2018-08-25T09:14:55.369Z,1008.36
2018-08-25T09:15:55.342Z,1008.36
2018-08-25T09:16:55.413Z,1008.43
2018-08-25T09:17:55.481Z,1008.40
2018-08-25T09:18:55.550Z,1008.36
2018-08-25T09:19:55.626Z,1008.09
2018-08-25T09:20:55.694Z,1007.97
2018-08-25T09:21:55.758Z,1007.92
2018-08-25T09:22:55.826Z,1008.41
2018-08-25T09:23:56.378Z,1008.42
2018-08-25T09:24:56.074Z,1008.01
2018-08-25T09:25:56.044Z,1008.01
2018-08-25T09:26:56.104Z,1007.98
2018-08-25T09:27:56.170Z,1007.92
2018-08-25T09:28:56.244Z,1007.96
2018-08-25T09:29:56.347Z,1007.92
2018-08-25T09:30:56.374Z,1007.98
2018-08-25T09:31:56.446Z,1007.96
2018-08-25T09:32:56.510Z,1008.02
2018-08-25T09:33:56.578Z,1008.06
2018-08-25T09:34:56.651Z,1008.38
2018-08-25T09:35:56.739Z,1008.34
2018-08-25T09:36:57.037Z,1008.16
2018-08-25T09:37:56.851Z,1008.15
2018-08-25T09:38:56.914Z,1008.26
2018-08-25T09:39:56.997Z,1008.20
2018-08-25T09:40:57.059Z,1008.25
2018-08-25T09:41:57.119Z,1008.53
2018-08-25T09:42:57.187Z,1008.28
2018-08-25T09:43:57.255Z,1008.46
2018-08-25T09:44:57.323Z,1008.44
2018-08-25T09:45:57.660Z,1008.47
2018-08-25T09:46:57.471Z,1008.49
2018-08-25T09:47:57.523Z,1008.49
2018-08-25T09:48:57.599Z,1008.47
2018-08-25T09:49:57.667Z,1008.52
2018-08-25T09:50:57.735Z,1008.50
2018-08-25T09:51:57.806Z,1008.52
2018-08-25T09:52:57.865Z,1008.55
2018-08-25T09:53:57.935Z,1008.60
2018-08-25T09:54:58.000Z,1008.47
2018-08-25T09:55:58.196Z,1008.40
2018-08-25T09:56:58.139Z,1008.59
2018-08-25T09:57:58.207Z,1008.28
2018-08-25T09:58:58.391Z,1008.34
2018-08-25T09:59:58.344Z,1008.58
2018-08-25T10:00:58.420Z,1008.52
2018-08-25T10:01:58.488Z,1008.47
2018-08-25T10:02:58.547Z,1008.33
2018-08-25T10:03:58.615Z,1008.29
2018-08-25T10:04:58.687Z,1008.38
2018-08-25T10:05:58.768Z,1008.33
2018-08-25T10:06:58.827Z,1008.43
2018-08-25T10:07:58.887Z,1008.38
2018-08-25T10:08:58.960Z,1008.39
2018-08-25T10:09:59.028Z,1008.35
2018-08-25T10:10:59.414Z,1008.34
2018-08-25T10:11:59.160Z,1008.41
2018-08-25T10:12:59.228Z,1008.31
2018-08-25T10:13:59.297Z,1008.36
2018-08-25T10:14:59.364Z,1008.31
2018-08-25T10:15:59.436Z,1008.52
2018-08-25T10:16:59.571Z,1008.35
2018-08-25T10:17:59.571Z,1008.40
2018-08-25T10:18:59.637Z,1008.38
2018-08-25T10:19:59.706Z,1008.33
2018-08-25T10:20:59.779Z,1008.29
2018-08-25T10:21:59.844Z,1008.42
2018-08-25T10:22:59.964Z,1008.37
2018-08-25T10:23:59.973Z,1008.41
2018-08-25T10:25:00.045Z,1008.48
2018-08-25T10:26:00.196Z,1008.49
2018-08-25T10:27:00.175Z,1008.55
2018-08-25T10:28:00.241Z,1008.54
2018-08-25T10:29:00.365Z,1008.50
2018-08-25T10:30:00.377Z,1008.48
2018-08-25T10:31:00.449Z,1008.41
2018-08-25T10:32:00.516Z,1008.39
2018-08-25T10:33:00.594Z,1008.53
2018-08-25T10:34:00.645Z,1008.45
2018-08-25T10:35:00.713Z,1008.38
2018-08-25T10:36:00.793Z,1008.36
2018-08-25T10:37:00.856Z,1008.37
2018-08-25T10:38:00.917Z,1008.36
2018-08-25T10:39:00.981Z,1008.42
2018-08-25T10:40:01.049Z,1008.50
2018-08-25T10:41:01.228Z,1008.46
2018-08-25T10:42:01.234Z,1008.41
2018-08-25T10:43:01.253Z,1008.37
2018-08-25T10:44:01.324Z,1008.31
2018-08-25T10:45:01.389Z,1008.38
2018-08-25T10:46:01.461Z,1008.42
2018-08-25T10:47:01.529Z,1008.35
2018-08-25T10:48:01.605Z,1008.37
2018-08-25T10:49:01.662Z,1008.41
2018-08-25T10:50:01.725Z,1008.27
2018-08-25T10:51:01.801Z,1008.40
2018-08-25T10:52:01.865Z,1008.42
2018-08-25T10:53:01.929Z,1008.45
2018-08-25T10:54:02.069Z,1008.41
2018-08-25T10:55:02.057Z,1008.41
2018-08-25T10:56:02.216Z,1008.41
2018-08-25T10:57:02.193Z,1008.43
2018-08-25T10:58:02.261Z,1008.45
2018-08-25T10:59:02.325Z,1008.45
2018-08-25T11:00:02.427Z,1008.35
2018-08-25T11:01:02.577Z,1008.36
2018-08-25T11:02:02.533Z,1008.38
2018-08-25T11:03:02.605Z,1008.37
2018-08-25T11:04:02.662Z,1008.38
2018-08-25T11:05:02.730Z,1008.45
2018-08-25T11:06:02.801Z,1008.41
2018-08-25T11:07:02.865Z,1008.41
2018-08-25T11:08:02.929Z,1008.45
2018-08-25T11:09:02.994Z,1008.41
2018-08-25T11:10:03.070Z,1008.38
2018-08-25T11:11:03.286Z,1008.38
2018-08-25T11:12:03.194Z,1008.41
2018-08-25T11:13:03.261Z,1008.48
2018-08-25T11:14:03.326Z,1008.52
2018-08-25T11:15:03.395Z,1008.48
2018-08-25T11:16:03.466Z,1008.42
2018-08-25T11:17:03.530Z,1008.34
2018-08-25T11:18:03.594Z,1008.37
2018-08-25T11:19:03.658Z,1008.42
2018-08-25T11:20:03.725Z,1008.54
2018-08-25T11:21:03.798Z,1008.52
2018-08-25T11:22:03.866Z,1008.51
2018-08-25T11:23:03.922Z,1008.53
2018-08-25T11:24:03.990Z,1008.54
2018-08-25T11:25:04.062Z,1008.48
2018-08-25T11:26:04.398Z,1008.56
2018-08-25T11:27:04.190Z,1008.56
2018-08-25T11:28:04.258Z,1008.55
2018-08-25T11:29:04.324Z,1008.57
2018-08-25T11:30:04.390Z,1008.59
2018-08-25T11:31:04.462Z,1008.58
2018-08-25T11:32:04.530Z,1008.61
2018-08-25T11:33:04.590Z,1008.53
2018-08-25T11:34:04.662Z,1008.54
2018-08-25T11:35:04.722Z,1008.60
2018-08-25T11:36:04.795Z,1008.60
2018-08-25T11:37:04.918Z,1008.66
2018-08-25T11:38:04.961Z,1008.58
2018-08-25T11:39:04.991Z,1008.61
2018-08-25T11:40:05.059Z,1008.52
2018-08-25T11:41:05.288Z,1008.58
2018-08-25T11:42:05.190Z,1008.58
2018-08-25T11:43:05.255Z,1008.52
2018-08-25T11:44:05.400Z,1008.54
2018-08-25T11:45:05.390Z,1008.54
2018-08-25T11:46:05.468Z,1008.48
2018-08-25T11:47:05.531Z,1008.48
2018-08-25T11:48:05.592Z,1008.52
2018-08-25T11:49:05.655Z,1008.53
2018-08-25T11:50:05.729Z,1008.50
2018-08-25T11:51:05.795Z,1008.50
2018-08-25T11:52:05.863Z,1008.48
2018-08-25T11:53:05.923Z,1008.50
2018-08-25T11:54:06.031Z,1008.46
2018-08-25T11:55:06.055Z,1008.49
2018-08-25T11:56:06.403Z,1008.55
2018-08-25T11:57:06.187Z,1008.49
2018-08-25T11:58:06.256Z,1008.51
2018-08-25T11:59:06.323Z,1008.50
2018-08-25T12:00:06.388Z,1008.54
2018-08-25T12:01:06.476Z,1008.50
2018-08-25T12:02:06.572Z,1008.56
2018-08-25T12:03:06.592Z,1008.56
2018-08-25T12:04:06.659Z,1008.60
2018-08-25T12:05:06.720Z,1008.56
2018-08-25T12:06:06.797Z,1008.56